createdAt,value
2022-08-19T00:01:09.633Z,8.20
2022-08-19T00:06:31.594Z,9.90
2022-08-19T00:11:56.312Z,9.48
2022-08-19T00:17:17.065Z,14.07
2022-08-19T00:22:39.318Z,12.10
2022-08-19T00:28:00.296Z,9.88
2022-08-19T00:33:20.940Z,9.30
2022-08-19T00:38:44.367Z,10.77
2022-08-19T00:44:13.557Z,7.53
2022-08-19T00:49:53.682Z,12.05
2022-08-19T00:55:19.633Z,11.88
2022-08-19T01:00:40.325Z,8.25
2022-08-19T01:06:01.284Z,10.80
2022-08-19T01:11:22.139Z,14.43
2022-08-19T01:16:44.900Z,9.70
2022-08-19T01:22:30.081Z,8.65
2022-08-19T01:27:53.607Z,13.25
2022-08-19T01:33:15.092Z,13.05
2022-08-19T01:38:37.930Z,10.10
2022-08-19T01:44:17.578Z,16.00
2022-08-19T01:49:39.899Z,11.13
2022-08-19T01:55:00.550Z,13.40
2022-08-19T02:00:24.281Z,9.82
2022-08-19T02:05:46.579Z,13.77
2022-08-19T02:11:08.351Z,9.00
2022-08-19T02:16:29.479Z,15.23
2022-08-19T02:21:50.027Z,12.30
2022-08-19T02:27:10.590Z,11.52
2022-08-19T02:32:31.724Z,12.40
2022-08-19T02:38:18.202Z,13.20
2022-08-19T02:43:44.478Z,11.57
2022-08-19T02:49:21.628Z,8.65
2022-08-19T02:54:42.297Z,12.40
2022-08-19T03:00:07.128Z,12.75
2022-08-19T03:05:48.031Z,14.18
2022-08-19T03:11:15.586Z,11.57
2022-08-19T03:16:45.812Z,9.32
2022-08-19T03:22:06.342Z,14.70
2022-08-19T03:27:32.867Z,11.50
2022-08-19T03:32:57.231Z,9.48
2022-08-19T03:38:18.175Z,9.75
2022-08-19T03:43:40.324Z,13.65
2022-08-19T03:49:05.016Z,8.15
2022-08-19T03:54:26.347Z,10.05
2022-08-19T03:59:46.976Z,12.23
2022-08-19T04:05:09.068Z,15.40
2022-08-19T04:10:29.682Z,35.25
2022-08-19T04:15:50.681Z,19.58
2022-08-19T04:21:18.579Z,29.00
2022-08-19T04:26:39.981Z,20.27
2022-08-19T04:32:09.360Z,19.55
2022-08-19T04:37:35.430Z,19.77
2022-08-19T04:42:57.461Z,18.23
2022-08-19T04:48:27.772Z,11.55
2022-08-19T04:53:48.435Z,9.10
2022-08-19T04:59:09.604Z,8.07
2022-08-19T05:04:31.900Z,16.08
2022-08-19T05:09:58.528Z,9.82
2022-08-19T05:15:20.317Z,6.10
2022-08-19T05:21:00.117Z,7.20
2022-08-19T05:26:20.579Z,7.63
2022-08-19T05:31:41.780Z,4.95
2022-08-19T05:37:03.810Z,4.35
2022-08-19T05:42:24.790Z,6.82
2022-08-19T05:47:46.006Z,8.15
2022-08-19T05:53:07.174Z,4.70
2022-08-19T05:58:28.223Z,6.65
2022-08-19T06:03:48.871Z,7.65
2022-08-19T06:09:10.823Z,5.43
2022-08-19T06:14:35.112Z,3.42
2022-08-19T06:20:00.692Z,5.85
2022-08-19T06:25:21.778Z,3.65
2022-08-19T06:30:42.691Z,4.90
2022-08-19T06:36:03.407Z,12.80
2022-08-19T06:41:25.956Z,2.47
2022-08-19T06:46:53.627Z,3.97
2022-08-19T06:52:16.891Z,2.60
2022-08-19T06:57:37.629Z,2.88
2022-08-19T07:03:01.026Z,5.43
2022-08-19T07:08:27.561Z,3.58
2022-08-19T07:13:50.429Z,2.35
2022-08-19T07:19:16.285Z,2.10
2022-08-19T07:24:39.866Z,2.28
2022-08-19T07:30:12.885Z,3.85
2022-08-19T07:35:33.718Z,5.45
2022-08-19T07:40:54.850Z,2.10
2022-08-19T07:46:15.900Z,2.35
2022-08-19T07:51:37.208Z,5.40
2022-08-19T07:56:59.372Z,4.00
2022-08-19T08:02:19.925Z,2.92
2022-08-19T08:07:59.199Z,4.20
2022-08-19T08:13:19.588Z,2.58
2022-08-19T08:18:43.102Z,3.90
2022-08-19T08:24:04.160Z,3.20
2022-08-19T08:29:24.626Z,2.42
2022-08-19T08:34:51.713Z,2.67
2022-08-19T08:40:30.937Z,2.33
2022-08-19T08:45:57.445Z,2.55
2022-08-19T08:51:24.315Z,4.82
2022-08-19T08:56:45.879Z,1.65
2022-08-19T09:02:06.896Z,2.05
2022-08-19T09:07:56.990Z,2.05
2022-08-19T09:13:39.141Z,2.03
2022-08-19T09:19:06.472Z,2.38
2022-08-19T09:24:31.282Z,1.85
2022-08-19T09:29:54.714Z,4.63
2022-08-19T09:35:16.419Z,1.73
2022-08-19T09:40:38.590Z,5.55
2022-08-19T09:45:59.465Z,5.00
2022-08-19T09:56:34.064Z,2.50
2022-08-19T10:01:55.096Z,3.97
2022-08-19T10:07:35.999Z,2.00
2022-08-19T10:12:57.487Z,4.30
2022-08-19T10:18:20.023Z,3.30
2022-08-19T10:23:46.090Z,2.55
2022-08-19T10:29:09.263Z,2.85
2022-08-19T10:34:32.030Z,2.50
2022-08-19T10:39:52.975Z,9.40
2022-08-19T10:45:13.571Z,2.75
2022-08-19T10:50:52.630Z,2.58
2022-08-19T10:56:32.100Z,2.85
2022-08-19T11:01:52.635Z,2.40
2022-08-19T11:07:16.412Z,2.67
2022-08-19T11:12:42.099Z,2.90
2022-08-19T11:18:03.591Z,2.80
2022-08-19T11:23:25.214Z,3.00
2022-08-19T11:28:46.841Z,3.80
2022-08-19T11:34:09.545Z,2.80
2022-08-19T11:39:32.652Z,2.97
2022-08-19T11:50:15.179Z,2.30
2022-08-19T11:55:43.365Z,2.30
2022-08-19T12:01:13.434Z,2.72
2022-08-19T12:06:35.194Z,4.85
2022-08-19T12:11:56.309Z,3.38
2022-08-19T12:17:17.101Z,4.60
2022-08-19T12:22:38.682Z,3.05
2022-08-19T12:28:00.118Z,2.80
2022-08-19T12:33:25.373Z,2.20
2022-08-19T12:38:46.022Z,3.95
2022-08-19T12:44:07.275Z,2.75
2022-08-19T12:49:52.766Z,2.28
2022-08-19T12:55:12.459Z,2.53
2022-08-19T13:00:33.689Z,2.33
2022-08-19T13:05:54.810Z,2.25
2022-08-19T13:11:19.875Z,3.65
2022-08-19T13:16:41.327Z,2.13
2022-08-19T13:22:02.066Z,1.75
2022-08-19T13:27:22.586Z,2.08
2022-08-19T13:33:02.331Z,2.20
2022-08-19T13:38:23.056Z,2.20
2022-08-19T13:43:43.779Z,1.80
2022-08-19T13:49:05.181Z,2.42
2022-08-19T13:54:26.094Z,2.53
2022-08-19T13:59:46.445Z,2.92
2022-08-19T14:05:09.759Z,2.08
2022-08-19T14:10:32.407Z,5.03
2022-08-19T14:15:53.079Z,2.40
2022-08-19T14:21:21.036Z,1.75
2022-08-19T14:26:41.840Z,2.72
2022-08-19T14:32:02.928Z,1.67
2022-08-19T14:37:23.626Z,5.95
2022-08-19T14:42:46.152Z,2.15
2022-08-19T14:48:08.479Z,3.25
2022-08-19T14:53:39.443Z,2.40
2022-08-19T14:59:01.912Z,2.85
2022-08-19T15:04:22.505Z,3.47
2022-08-19T15:09:43.348Z,2.30
2022-08-19T15:15:04.167Z,3.85
2022-08-19T15:20:25.129Z,2.67
2022-08-19T15:25:46.126Z,2.88
2022-08-19T15:31:06.535Z,2.28
2022-08-19T15:36:27.864Z,2.30
2022-08-19T15:41:48.294Z,2.15
2022-08-19T15:47:08.684Z,3.65
2022-08-19T15:52:29.338Z,3.90
2022-08-19T15:58:08.684Z,3.28
2022-08-19T16:04:01.804Z,4.15
2022-08-19T16:09:27.615Z,3.42
2022-08-19T16:14:49.182Z,5.03
2022-08-19T16:20:11.084Z,5.97
2022-08-19T16:25:31.580Z,7.95
2022-08-19T16:30:52.278Z,5.85
2022-08-19T16:36:13.118Z,4.97
2022-08-19T16:41:34.569Z,3.08
2022-08-19T16:46:58.460Z,3.83
2022-08-19T16:52:19.847Z,4.38
2022-08-19T17:01:38.240Z,6.80
2022-08-19T17:06:58.605Z,4.68
2022-08-19T17:12:19.308Z,4.82
2022-08-19T17:17:40.010Z,8.35
2022-08-19T17:23:01.054Z,6.25
2022-08-19T17:28:28.969Z,4.88
2022-08-19T17:33:50.287Z,4.93
2022-08-19T17:39:10.805Z,6.07
2022-08-19T17:44:33.070Z,7.82
2022-08-19T17:49:53.909Z,7.30
2022-08-19T17:55:15.396Z,5.82
2022-08-19T18:00:36.120Z,6.82
2022-08-19T18:05:57.136Z,10.23
2022-08-19T18:11:17.660Z,12.32
2022-08-19T18:16:39.326Z,7.47
2022-08-19T18:22:00.064Z,18.33
2022-08-19T18:27:20.903Z,7.43
2022-08-19T18:32:43.973Z,13.27
2022-08-19T18:38:27.078Z,7.65
2022-08-19T18:44:06.042Z,8.95
2022-08-19T18:49:34.671Z,7.47
2022-08-19T18:54:55.944Z,6.78
2022-08-19T19:00:16.951Z,8.55
2022-08-19T19:05:37.352Z,14.25
2022-08-19T19:11:04.924Z,9.80
2022-08-19T19:16:25.516Z,15.38
2022-08-19T19:21:49.396Z,13.10
2022-08-19T19:27:11.446Z,22.77
2022-08-19T19:32:39.104Z,18.20
2022-08-19T19:37:59.904Z,22.05
2022-08-19T19:43:20.421Z,24.77
2022-08-19T19:48:40.807Z,26.20
2022-08-19T19:54:01.996Z,28.02
2022-08-19T19:59:22.914Z,25.05
2022-08-19T20:04:44.164Z,24.15
2022-08-19T20:10:04.999Z,32.45
2022-08-19T20:15:25.752Z,30.60
2022-08-19T20:20:49.925Z,24.27
2022-08-19T20:26:14.832Z,18.20
2022-08-19T20:31:58.026Z,19.17
2022-08-19T20:37:20.245Z,17.77
2022-08-19T20:42:42.548Z,21.45
2022-08-19T20:48:05.518Z,18.25
2022-08-19T20:53:27.233Z,19.88
2022-08-19T20:58:51.848Z,21.17
2022-08-19T21:04:15.391Z,24.58
2022-08-19T21:09:36.103Z,24.48
2022-08-19T21:14:56.524Z,20.83
2022-08-19T21:20:17.037Z,24.60
2022-08-19T21:25:37.749Z,15.18
2022-08-19T21:31:00.239Z,18.13
2022-08-19T21:36:21.085Z,11.57
2022-08-19T21:41:43.652Z,11.80
2022-08-19T21:47:05.450Z,14.27
2022-08-19T21:52:29.668Z,21.17
2022-08-19T21:57:50.075Z,15.57
2022-08-19T22:03:10.510Z,5.50
2022-08-19T22:08:31.532Z,3.13
2022-08-19T22:13:53.809Z,4.32
2022-08-19T22:19:14.364Z,4.63
2022-08-19T22:24:35.092Z,5.85
2022-08-19T22:29:55.746Z,3.55
2022-08-19T22:35:19.305Z,4.00
2022-08-19T22:40:47.410Z,4.97
2022-08-19T22:46:16.853Z,4.20
2022-08-19T22:51:56.696Z,11.57
2022-08-19T22:57:21.524Z,4.53
2022-08-19T23:02:52.106Z,4.30
2022-08-19T23:08:13.656Z,6.63
2022-08-19T23:13:34.199Z,3.65
2022-08-19T23:18:56.140Z,6.22
2022-08-19T23:24:17.217Z,4.70
2022-08-19T23:29:56.395Z,5.53
2022-08-19T23:35:16.942Z,5.68
2022-08-19T23:40:38.792Z,4.03
2022-08-19T23:46:00.922Z,5.05
2022-08-19T23:51:21.372Z,4.82
2022-08-19T23:56:41.837Z,4.65
